sensor_id;sensor_type;location;lat;lon;timestamp;P1;durP1;ratioP1;P2;durP2;ratioP2
43646;SDS011;56152;49.996;18.980;2023-09-07T00:00:55;14.25;;;10.38;;
43646;SDS011;56152;49.996;18.980;2023-09-07T00:05:59;18.10;;;12.10;;
43646;SDS011;56152;49.996;18.980;2023-09-07T00:11:03;18.25;;;11.32;;
43646;SDS011;56152;49.996;18.980;2023-09-07T00:16:07;16.75;;;10.95;;
43646;SDS011;56152;49.996;18.980;2023-09-07T00:21:10;17.15;;;11.10;;
43646;SDS011;56152;49.996;18.980;2023-09-07T00:26:13;16.17;;;10.75;;
43646;SDS011;56152;49.996;18.980;2023-09-07T00:31:17;25.75;;;13.30;;
43646;SDS011;56152;49.996;18.980;2023-09-07T00:36:21;12.07;;;9.23;;
43646;SDS011;56152;49.996;18.980;2023-09-07T00:41:24;18.63;;;10.07;;
43646;SDS011;56152;49.996;18.980;2023-09-07T00:46:33;15.40;;;10.90;;
43646;SDS011;56152;49.996;18.980;2023-09-07T00:51:36;13.40;;;10.27;;
43646;SDS011;56152;49.996;18.980;2023-09-07T00:56:38;14.65;;;11.02;;
43646;SDS011;56152;49.996;18.980;2023-09-07T01:01:43;15.80;;;10.85;;
43646;SDS011;56152;49.996;18.980;2023-09-07T01:06:47;16.38;;;11.13;;
43646;SDS011;56152;49.996;18.980;2023-09-07T01:11:52;24.55;;;14.23;;
43646;SDS011;56152;49.996;18.980;2023-09-07T01:16:57;17.60;;;11.35;;
43646;SDS011;56152;49.996;18.980;2023-09-07T01:22:02;13.55;;;10.88;;
43646;SDS011;56152;49.996;18.980;2023-09-07T01:27:06;19.27;;;10.48;;
43646;SDS011;56152;49.996;18.980;2023-09-07T01:32:15;20.80;;;14.10;;
43646;SDS011;56152;49.996;18.980;2023-09-07T01:37:21;24.08;;;15.88;;
43646;SDS011;56152;49.996;18.980;2023-09-07T01:42:22;21.30;;;15.48;;
43646;SDS011;56152;49.996;18.980;2023-09-07T01:47:26;29.83;;;18.30;;
43646;SDS011;56152;49.996;18.980;2023-09-07T01:52:31;22.70;;;15.10;;
43646;SDS011;56152;49.996;18.980;2023-09-07T01:57:34;21.05;;;14.90;;
43646;SDS011;56152;49.996;18.980;2023-09-07T02:02:37;22.35;;;15.00;;
43646;SDS011;56152;49.996;18.980;2023-09-07T02:07:41;20.30;;;14.02;;
43646;SDS011;56152;49.996;18.980;2023-09-07T02:12:47;20.67;;;14.90;;
43646;SDS011;56152;49.996;18.980;2023-09-07T02:17:51;24.77;;;16.48;;
43646;SDS011;56152;49.996;18.980;2023-09-07T02:22:56;23.48;;;16.45;;
43646;SDS011;56152;49.996;18.980;2023-09-07T02:27:58;24.00;;;14.95;;
43646;SDS011;56152;49.996;18.980;2023-09-07T02:33:02;17.73;;;13.52;;
43646;SDS011;56152;49.996;18.980;2023-09-07T02:38:07;21.27;;;15.43;;
43646;SDS011;56152;49.996;18.980;2023-09-07T02:43:09;18.55;;;13.20;;
43646;SDS011;56152;49.996;18.980;2023-09-07T02:48:13;25.70;;;12.98;;
43646;SDS011;56152;49.996;18.980;2023-09-07T02:53:19;19.52;;;12.68;;
43646;SDS011;56152;49.996;18.980;2023-09-07T02:58:21;12.45;;;9.60;;
43646;SDS011;56152;49.996;18.980;2023-09-07T03:03:24;12.05;;;8.13;;
43646;SDS011;56152;49.996;18.980;2023-09-07T03:08:31;9.65;;;7.03;;
43646;SDS011;56152;49.996;18.980;2023-09-07T03:13:35;11.52;;;8.48;;
43646;SDS011;56152;49.996;18.980;2023-09-07T03:18:38;10.32;;;8.68;;
43646;SDS011;56152;49.996;18.980;2023-09-07T03:23:43;10.80;;;8.65;;
43646;SDS011;56152;49.996;18.980;2023-09-07T03:28:45;12.82;;;8.93;;
43646;SDS011;56152;49.996;18.980;2023-09-07T03:33:48;12.63;;;8.93;;
43646;SDS011;56152;49.996;18.980;2023-09-07T03:38:52;21.00;;;10.25;;
43646;SDS011;56152;49.996;18.980;2023-09-07T03:43:54;18.10;;;11.15;;
43646;SDS011;56152;49.996;18.980;2023-09-07T03:48:58;13.57;;;8.73;;
43646;SDS011;56152;49.996;18.980;2023-09-07T03:54:02;16.95;;;12.13;;
43646;SDS011;56152;49.996;18.980;2023-09-07T03:59:04;27.25;;;15.23;;
43646;SDS011;56152;49.996;18.980;2023-09-07T04:04:11;28.50;;;16.75;;
43646;SDS011;56152;49.996;18.980;2023-09-07T04:09:16;16.25;;;11.20;;
43646;SDS011;56152;49.996;18.980;2023-09-07T04:14:18;18.58;;;11.68;;
43646;SDS011;56152;49.996;18.980;2023-09-07T04:19:20;15.63;;;10.95;;
43646;SDS011;56152;49.996;18.980;2023-09-07T04:24:26;18.48;;;10.95;;
43646;SDS011;56152;49.996;18.980;2023-09-07T04:29:29;17.77;;;10.77;;
43646;SDS011;56152;49.996;18.980;2023-09-07T04:34:32;22.40;;;14.27;;
43646;SDS011;56152;49.996;18.980;2023-09-07T04:39:37;17.70;;;12.18;;
43646;SDS011;56152;49.996;18.980;2023-09-07T04:44:40;23.63;;;15.55;;
43646;SDS011;56152;49.996;18.980;2023-09-07T04:49:48;19.60;;;12.80;;
43646;SDS011;56152;49.996;18.980;2023-09-07T04:54:54;17.75;;;13.27;;
43646;SDS011;56152;49.996;18.980;2023-09-07T04:59:56;15.43;;;11.80;;
43646;SDS011;56152;49.996;18.980;2023-09-07T05:04:58;23.90;;;17.88;;
43646;SDS011;56152;49.996;18.980;2023-09-07T05:10:05;24.90;;;16.25;;
43646;SDS011;56152;49.996;18.980;2023-09-07T05:15:09;41.03;;;26.15;;
43646;SDS011;56152;49.996;18.980;2023-09-07T05:20:11;29.90;;;20.17;;
43646;SDS011;56152;49.996;18.980;2023-09-07T05:25:15;34.03;;;23.02;;
43646;SDS011;56152;49.996;18.980;2023-09-07T05:30:17;18.90;;;14.73;;
43646;SDS011;56152;49.996;18.980;2023-09-07T05:35:21;24.52;;;17.98;;
43646;SDS011;56152;49.996;18.980;2023-09-07T05:40:29;32.22;;;19.33;;
43646;SDS011;56152;49.996;18.980;2023-09-07T05:45:35;30.80;;;19.38;;
43646;SDS011;56152;49.996;18.980;2023-09-07T05:50:41;24.67;;;14.55;;
43646;SDS011;56152;49.996;18.980;2023-09-07T05:55:47;18.50;;;14.13;;
43646;SDS011;56152;49.996;18.980;2023-09-07T06:00:51;25.40;;;15.35;;
43646;SDS011;56152;49.996;18.980;2023-09-07T06:05:56;22.48;;;13.10;;
43646;SDS011;56152;49.996;18.980;2023-09-07T06:11:05;24.17;;;13.82;;
43646;SDS011;56152;49.996;18.980;2023-09-07T06:21:11;14.25;;;11.48;;
43646;SDS011;56152;49.996;18.980;2023-09-07T06:26:15;15.55;;;11.10;;
43646;SDS011;56152;49.996;18.980;2023-09-07T06:31:19;16.85;;;11.20;;
43646;SDS011;56152;49.996;18.980;2023-09-07T06:36:21;19.48;;;10.85;;
43646;SDS011;56152;49.996;18.980;2023-09-07T06:41:24;12.48;;;9.13;;
43646;SDS011;56152;49.996;18.980;2023-09-07T06:46:27;13.10;;;7.80;;
43646;SDS011;56152;49.996;18.980;2023-09-07T06:51:30;11.90;;;7.30;;
43646;SDS011;56152;49.996;18.980;2023-09-07T06:56:37;11.75;;;7.20;;
43646;SDS011;56152;49.996;18.980;2023-09-07T07:01:39;14.38;;;7.50;;
43646;SDS011;56152;49.996;18.980;2023-09-07T07:06:42;9.43;;;6.25;;
43646;SDS011;56152;49.996;18.980;2023-09-07T07:11:50;12.18;;;7.25;;
43646;SDS011;56152;49.996;18.980;2023-09-07T07:16:52;9.30;;;6.07;;
43646;SDS011;56152;49.996;18.980;2023-09-07T07:21:55;11.15;;;6.25;;
43646;SDS011;56152;49.996;18.980;2023-09-07T07:26:58;8.98;;;6.00;;
43646;SDS011;56152;49.996;18.980;2023-09-07T07:32:01;17.85;;;6.95;;
43646;SDS011;56152;49.996;18.980;2023-09-07T07:37:07;10.82;;;7.15;;
43646;SDS011;56152;49.996;18.980;2023-09-07T07:42:14;11.93;;;6.85;;
43646;SDS011;56152;49.996;18.980;2023-09-07T07:47:18;15.73;;;6.60;;
43646;SDS011;56152;49.996;18.980;2023-09-07T07:52:21;9.93;;;6.30;;
43646;SDS011;56152;49.996;18.980;2023-09-07T07:57:27;15.27;;;7.70;;
43646;SDS011;56152;49.996;18.980;2023-09-07T08:02:29;9.82;;;6.35;;
43646;SDS011;56152;49.996;18.980;2023-09-07T08:07:32;15.45;;;6.53;;
43646;SDS011;56152;49.996;18.980;2023-09-07T08:12:37;10.77;;;7.25;;
43646;SDS011;56152;49.996;18.980;2023-09-07T08:17:40;8.23;;;6.00;;
43646;SDS011;56152;49.996;18.980;2023-09-07T08:22:45;7.70;;;5.78;;
43646;SDS011;56152;49.996;18.980;2023-09-07T08:27:55;9.52;;;6.55;;
43646;SDS011;56152;49.996;18.980;2023-09-07T08:32:59;12.85;;;6.57;;
43646;SDS011;56152;49.996;18.980;2023-09-07T08:38:06;11.70;;;6.72;;
43646;SDS011;56152;49.996;18.980;2023-09-07T08:43:10;10.90;;;6.57;;
43646;SDS011;56152;49.996;18.980;2023-09-07T08:48:13;9.60;;;6.45;;
43646;SDS011;56152;49.996;18.980;2023-09-07T08:53:20;6.68;;;5.60;;
43646;SDS011;56152;49.996;18.980;2023-09-07T08:58:24;9.32;;;5.88;;
43646;SDS011;56152;49.996;18.980;2023-09-07T09:03:26;12.00;;;4.75;;
43646;SDS011;56152;49.996;18.980;2023-09-07T09:08:29;11.80;;;5.30;;
43646;SDS011;56152;49.996;18.980;2023-09-07T09:13:45;14.93;;;5.80;;
43646;SDS011;56152;49.996;18.980;2023-09-07T09:18:47;7.60;;;5.43;;
43646;SDS011;56152;49.996;18.980;2023-09-07T09:23:53;10.68;;;5.50;;
43646;SDS011;56152;49.996;18.980;2023-09-07T09:29:00;12.50;;;5.82;;
43646;SDS011;56152;49.996;18.980;2023-09-07T09:34:03;7.70;;;5.47;;
43646;SDS011;56152;49.996;18.980;2023-09-07T09:39:08;9.63;;;5.45;;
43646;SDS011;56152;49.996;18.980;2023-09-07T09:44:15;9.18;;;6.15;;
43646;SDS011;56152;49.996;18.980;2023-09-07T09:49:21;9.98;;;6.30;;
43646;SDS011;56152;49.996;18.980;2023-09-07T09:54:26;8.52;;;5.78;;
43646;SDS011;56152;49.996;18.980;2023-09-07T10:04:40;6.78;;;5.07;;
43646;SDS011;56152;49.996;18.980;2023-09-07T10:09:43;10.27;;;4.80;;
43646;SDS011;56152;49.996;18.980;2023-09-07T10:20:10;12.05;;;5.65;;
43646;SDS011;56152;49.996;18.980;2023-09-07T10:25:19;8.52;;;5.45;;
43646;SDS011;56152;49.996;18.980;2023-09-07T10:30:26;10.75;;;5.85;;
43646;SDS011;56152;49.996;18.980;2023-09-07T10:35:34;12.55;;;5.05;;
43646;SDS011;56152;49.996;18.980;2023-09-07T10:40:40;9.15;;;5.10;;
43646;SDS011;56152;49.996;18.980;2023-09-07T10:45:48;8.88;;;5.50;;
43646;SDS011;56152;49.996;18.980;2023-09-07T10:50:51;7.43;;;4.57;;
43646;SDS011;56152;49.996;18.980;2023-09-07T10:55:53;6.68;;;4.80;;
43646;SDS011;56152;49.996;18.980;2023-09-07T11:01:01;7.38;;;5.05;;
43646;SDS011;56152;49.996;18.980;2023-09-07T11:06:09;9.65;;;4.75;;
43646;SDS011;56152;49.996;18.980;2023-09-07T11:11:15;8.43;;;5.37;;
43646;SDS011;56152;49.996;18.980;2023-09-07T11:16:21;8.75;;;4.50;;
43646;SDS011;56152;49.996;18.980;2023-09-07T11:21:27;8.13;;;4.05;;
43646;SDS011;56152;49.996;18.980;2023-09-07T11:26:40;7.25;;;4.15;;
43646;SDS011;56152;49.996;18.980;2023-09-07T11:31:46;8.43;;;5.10;;
43646;SDS011;56152;49.996;18.980;2023-09-07T11:36:48;8.50;;;4.70;;
43646;SDS011;56152;49.996;18.980;2023-09-07T11:41:50;8.13;;;4.93;;
43646;SDS011;56152;49.996;18.980;2023-09-07T11:46:55;13.45;;;5.38;;
43646;SDS011;56152;49.996;18.980;2023-09-07T11:51:57;11.75;;;4.88;;
43646;SDS011;56152;49.996;18.980;2023-09-07T11:56:59;9.35;;;5.13;;
43646;SDS011;56152;49.996;18.980;2023-09-07T12:02:06;7.57;;;4.85;;
43646;SDS011;56152;49.996;18.980;2023-09-07T12:07:11;11.87;;;4.60;;
43646;SDS011;56152;49.996;18.980;2023-09-07T12:12:14;7.85;;;5.05;;
43646;SDS011;56152;49.996;18.980;2023-09-07T12:17:20;7.80;;;5.05;;
43646;SDS011;56152;49.996;18.980;2023-09-07T12:22:23;8.27;;;4.57;;
43646;SDS011;56152;49.996;18.980;2023-09-07T12:27:25;6.65;;;4.65;;
43646;SDS011;56152;49.996;18.980;2023-09-07T12:32:34;8.10;;;5.45;;
43646;SDS011;56152;49.996;18.980;2023-09-07T12:37:39;6.63;;;4.68;;
43646;SDS011;56152;49.996;18.980;2023-09-07T12:42:43;13.45;;;4.50;;
43646;SDS011;56152;49.996;18.980;2023-09-07T12:47:49;9.10;;;4.93;;
43646;SDS011;56152;49.996;18.980;2023-09-07T12:52:51;9.07;;;5.00;;
43646;SDS011;56152;49.996;18.980;2023-09-07T12:57:54;6.10;;;4.60;;
43646;SDS011;56152;49.996;18.980;2023-09-07T13:03:03;8.25;;;4.93;;
43646;SDS011;56152;49.996;18.980;2023-09-07T13:08:06;6.90;;;4.43;;
43646;SDS011;56152;49.996;18.980;2023-09-07T13:13:10;7.20;;;4.40;;
43646;SDS011;56152;49.996;18.980;2023-09-07T13:18:18;6.72;;;4.38;;
43646;SDS011;56152;49.996;18.980;2023-09-07T13:23:23;6.85;;;5.28;;
43646;SDS011;56152;49.996;18.980;2023-09-07T13:28:26;12.57;;;4.90;;
43646;SDS011;56152;49.996;18.980;2023-09-07T13:33:32;12.10;;;5.30;;
43646;SDS011;56152;49.996;18.980;2023-09-07T13:38:36;8.10;;;4.78;;
43646;SDS011;56152;49.996;18.980;2023-09-07T13:43:38;5.63;;;4.40;;
43646;SDS011;56152;49.996;18.980;2023-09-07T13:48:42;9.18;;;4.85;;
43646;SDS011;56152;49.996;18.980;2023-09-07T13:53:45;9.40;;;4.78;;
43646;SDS011;56152;49.996;18.980;2023-09-07T13:58:50;5.95;;;4.43;;
43646;SDS011;56152;49.996;18.980;2023-09-07T14:03:56;10.55;;;5.00;;
43646;SDS011;56152;49.996;18.980;2023-09-07T14:08:58;7.93;;;4.75;;
43646;SDS011;56152;49.996;18.980;2023-09-07T14:14:02;6.32;;;4.68;;
43646;SDS011;56152;49.996;18.980;2023-09-07T14:19:10;9.05;;;4.25;;
43646;SDS011;56152;49.996;18.980;2023-09-07T14:24:12;12.32;;;5.13;;
43646;SDS011;56152;49.996;18.980;2023-09-07T14:29:16;6.80;;;4.85;;
43646;SDS011;56152;49.996;18.980;2023-09-07T14:34:22;8.52;;;4.53;;
43646;SDS011;56152;49.996;18.980;2023-09-07T14:39:26;5.15;;;4.05;;
43646;SDS011;56152;49.996;18.980;2023-09-07T14:44:28;4.88;;;4.03;;
43646;SDS011;56152;49.996;18.980;2023-09-07T14:49:32;9.45;;;3.88;;
43646;SDS011;56152;49.996;18.980;2023-09-07T14:54:34;9.23;;;4.63;;
43646;SDS011;56152;49.996;18.980;2023-09-07T14:59:37;5.75;;;4.32;;
43646;SDS011;56152;49.996;18.980;2023-09-07T15:04:43;7.55;;;3.85;;
43646;SDS011;56152;49.996;18.980;2023-09-07T15:09:45;7.63;;;4.28;;
43646;SDS011;56152;49.996;18.980;2023-09-07T15:14:48;7.10;;;4.40;;
43646;SDS011;56152;49.996;18.980;2023-09-07T15:19:52;11.68;;;5.32;;
43646;SDS011;56152;49.996;18.980;2023-09-07T15:24:55;7.53;;;4.25;;
43646;SDS011;56152;49.996;18.980;2023-09-07T15:30:00;9.77;;;3.80;;
43646;SDS011;56152;49.996;18.980;2023-09-07T15:35:06;9.90;;;4.70;;
43646;SDS011;56152;49.996;18.980;2023-09-07T15:40:13;9.35;;;4.05;;
43646;SDS011;56152;49.996;18.980;2023-09-07T15:45:15;5.45;;;4.32;;
43646;SDS011;56152;49.996;18.980;2023-09-07T15:50:20;7.15;;;4.90;;
43646;SDS011;56152;49.996;18.980;2023-09-07T15:55:27;5.00;;;3.80;;
43646;SDS011;56152;49.996;18.980;2023-09-07T16:00:29;7.35;;;3.80;;
43646;SDS011;56152;49.996;18.980;2023-09-07T16:05:35;8.40;;;4.90;;
43646;SDS011;56152;49.996;18.980;2023-09-07T16:10:37;9.25;;;4.90;;
43646;SDS011;56152;49.996;18.980;2023-09-07T16:15:39;11.07;;;5.00;;
43646;SDS011;56152;49.996;18.980;2023-09-07T16:20:44;9.95;;;4.35;;
43646;SDS011;56152;49.996;18.980;2023-09-07T16:25:46;8.82;;;5.00;;
43646;SDS011;56152;49.996;18.980;2023-09-07T16:30:51;7.43;;;4.97;;
43646;SDS011;56152;49.996;18.980;2023-09-07T16:35:59;8.20;;;4.45;;
43646;SDS011;56152;49.996;18.980;2023-09-07T16:41:06;9.65;;;4.90;;
43646;SDS011;56152;49.996;18.980;2023-09-07T16:46:16;12.15;;;4.75;;
43646;SDS011;56152;49.996;18.980;2023-09-07T16:51:24;8.55;;;5.13;;
43646;SDS011;56152;49.996;18.980;2023-09-07T16:56:31;11.90;;;5.35;;
43646;SDS011;56152;49.996;18.980;2023-09-07T17:01:34;54.55;;;27.45;;
43646;SDS011;56152;49.996;18.980;2023-09-07T17:06:40;57.20;;;27.73;;
43646;SDS011;56152;49.996;18.980;2023-09-07T17:11:54;57.75;;;31.08;;
43646;SDS011;56152;49.996;18.980;2023-09-07T17:17:13;22.73;;;14.73;;
43646;SDS011;56152;49.996;18.980;2023-09-07T17:22:21;13.93;;;8.68;;
43646;SDS011;56152;49.996;18.980;2023-09-07T17:27:23;12.90;;;8.00;;
43646;SDS011;56152;49.996;18.980;2023-09-07T17:32:27;20.30;;;11.98;;
43646;SDS011;56152;49.996;18.980;2023-09-07T17:37:32;20.23;;;10.38;;
43646;SDS011;56152;49.996;18.980;2023-09-07T17:42:39;36.50;;;15.23;;
43646;SDS011;56152;49.996;18.980;2023-09-07T17:47:43;50.20;;;21.27;;
43646;SDS011;56152;49.996;18.980;2023-09-07T17:52:47;45.80;;;22.08;;
43646;SDS011;56152;49.996;18.980;2023-09-07T17:57:52;86.60;;;33.65;;
43646;SDS011;56152;49.996;18.980;2023-09-07T18:02:58;96.85;;;40.47;;
43646;SDS011;56152;49.996;18.980;2023-09-07T18:08:02;95.55;;;41.22;;
43646;SDS011;56152;49.996;18.980;2023-09-07T18:13:06;48.63;;;23.17;;
43646;SDS011;56152;49.996;18.980;2023-09-07T18:18:09;31.75;;;14.20;;
43646;SDS011;56152;49.996;18.980;2023-09-07T18:23:21;159.80;;;62.40;;
43646;SDS011;56152;49.996;18.980;2023-09-07T18:28:27;65.57;;;24.43;;
43646;SDS011;56152;49.996;18.980;2023-09-07T18:33:31;48.65;;;16.40;;
43646;SDS011;56152;49.996;18.980;2023-09-07T18:38:36;32.00;;;12.85;;
43646;SDS011;56152;49.996;18.980;2023-09-07T18:43:48;34.80;;;17.52;;
43646;SDS011;56152;49.996;18.980;2023-09-07T18:48:50;30.42;;;15.32;;
43646;SDS011;56152;49.996;18.980;2023-09-07T18:53:55;24.25;;;13.20;;
43646;SDS011;56152;49.996;18.980;2023-09-07T18:58:57;21.73;;;12.45;;
43646;SDS011;56152;49.996;18.980;2023-09-07T19:04:10;14.85;;;9.82;;
43646;SDS011;56152;49.996;18.980;2023-09-07T19:09:18;16.27;;;8.65;;
43646;SDS011;56152;49.996;18.980;2023-09-07T19:14:21;19.20;;;9.02;;
43646;SDS011;56152;49.996;18.980;2023-09-07T19:19:25;22.52;;;9.88;;
43646;SDS011;56152;49.996;18.980;2023-09-07T19:24:32;16.52;;;9.10;;
43646;SDS011;56152;49.996;18.980;2023-09-07T19:29:34;21.55;;;9.20;;
43646;SDS011;56152;49.996;18.980;2023-09-07T19:34:43;15.32;;;9.30;;
43646;SDS011;56152;49.996;18.980;2023-09-07T19:39:49;17.52;;;10.32;;
43646;SDS011;56152;49.996;18.980;2023-09-07T19:44:52;13.70;;;9.18;;
43646;SDS011;56152;49.996;18.980;2023-09-07T19:49:58;18.25;;;10.95;;
43646;SDS011;56152;49.996;18.980;2023-09-07T19:55:03;18.65;;;11.27;;
43646;SDS011;56152;49.996;18.980;2023-09-07T20:00:09;22.67;;;11.93;;
43646;SDS011;56152;49.996;18.980;2023-09-07T20:05:13;19.75;;;9.85;;
43646;SDS011;56152;49.996;18.980;2023-09-07T20:10:20;12.50;;;8.23;;
43646;SDS011;56152;49.996;18.980;2023-09-07T20:15:26;13.88;;;8.55;;
43646;SDS011;56152;49.996;18.980;2023-09-07T20:20:33;13.87;;;8.47;;
43646;SDS011;56152;49.996;18.980;2023-09-07T20:25:37;14.77;;;9.05;;
43646;SDS011;56152;49.996;18.980;2023-09-07T20:30:39;18.27;;;10.30;;
43646;SDS011;56152;49.996;18.980;2023-09-07T20:35:42;20.55;;;10.13;;
43646;SDS011;56152;49.996;18.980;2023-09-07T20:40:47;17.02;;;8.75;;
43646;SDS011;56152;49.996;18.980;2023-09-07T20:45:50;10.77;;;8.15;;
43646;SDS011;56152;49.996;18.980;2023-09-07T20:50:52;13.80;;;9.93;;
43646;SDS011;56152;49.996;18.980;2023-09-07T20:55:57;13.15;;;9.27;;
43646;SDS011;56152;49.996;18.980;2023-09-07T21:00:59;13.80;;;9.63;;
43646;SDS011;56152;49.996;18.980;2023-09-07T21:06:02;16.77;;;11.07;;
43646;SDS011;56152;49.996;18.980;2023-09-07T21:11:07;15.45;;;9.45;;
43646;SDS011;56152;49.996;18.980;2023-09-07T21:16:09;11.63;;;8.98;;
43646;SDS011;56152;49.996;18.980;2023-09-07T21:21:12;12.80;;;9.77;;
43646;SDS011;56152;49.996;18.980;2023-09-07T21:26:16;12.90;;;8.90;;
43646;SDS011;56152;49.996;18.980;2023-09-07T21:31:18;15.63;;;9.98;;
43646;SDS011;56152;49.996;18.980;2023-09-07T21:36:21;26.27;;;13.32;;
43646;SDS011;56152;49.996;18.980;2023-09-07T21:41:43;27.92;;;17.70;;
43646;SDS011;56152;49.996;18.980;2023-09-07T21:46:47;20.58;;;12.07;;
43646;SDS011;56152;49.996;18.980;2023-09-07T21:51:50;19.23;;;12.73;;
43646;SDS011;56152;49.996;18.980;2023-09-07T21:56:56;21.92;;;12.27;;
43646;SDS011;56152;49.996;18.980;2023-09-07T22:01:59;16.88;;;10.30;;
43646;SDS011;56152;49.996;18.980;2023-09-07T22:07:02;18.15;;;10.75;;
43646;SDS011;56152;49.996;18.980;2023-09-07T22:12:08;22.95;;;15.07;;
43646;SDS011;56152;49.996;18.980;2023-09-07T22:17:10;13.85;;;10.85;;
43646;SDS011;56152;49.996;18.980;2023-09-07T22:22:14;15.80;;;11.10;;
43646;SDS011;56152;49.996;18.980;2023-09-07T22:27:21;13.57;;;10.02;;
43646;SDS011;56152;49.996;18.980;2023-09-07T22:32:28;17.17;;;11.10;;
43646;SDS011;56152;49.996;18.980;2023-09-07T22:37:30;16.23;;;10.60;;
43646;SDS011;56152;49.996;18.980;2023-09-07T22:42:35;15.27;;;9.85;;
43646;SDS011;56152;49.996;18.980;2023-09-07T22:47:37;19.55;;;10.82;;
43646;SDS011;56152;49.996;18.980;2023-09-07T22:52:42;18.23;;;11.48;;
43646;SDS011;56152;49.996;18.980;2023-09-07T22:57:47;15.85;;;9.27;;
43646;SDS011;56152;49.996;18.980;2023-09-07T23:02:49;16.80;;;9.68;;
43646;SDS011;56152;49.996;18.980;2023-09-07T23:08:01;19.95;;;13.18;;
43646;SDS011;56152;49.996;18.980;2023-09-07T23:13:10;17.73;;;13.25;;
43646;SDS011;56152;49.996;18.980;2023-09-07T23:18:12;17.50;;;12.82;;
43646;SDS011;56152;49.996;18.980;2023-09-07T23:23:14;16.75;;;11.98;;
43646;SDS011;56152;49.996;18.980;2023-09-07T23:28:18;15.05;;;9.38;;
43646;SDS011;56152;49.996;18.980;2023-09-07T23:33:23;14.35;;;8.93;;
43646;SDS011;56152;49.996;18.980;2023-09-07T23:38:26;16.48;;;11.02;;
43646;SDS011;56152;49.996;18.980;2023-09-07T23:43:31;14.73;;;9.68;;
43646;SDS011;56152;49.996;18.980;2023-09-07T23:48:33;15.85;;;10.10;;
43646;SDS011;56152;49.996;18.980;2023-09-07T23:53:35;17.98;;;11.50;;
43646;SDS011;56152;49.996;18.980;2023-09-07T23:58:42;15.48;;;10.82;;
